DLH453 KLAX-EDDM
Flight info
| Callsign | DLH453 |
|---|---|
| Flight time | N/A |
| Altitude | 35000 |
| Route | OSHNN1 BEALE DCT BAWER DCT KU54Q DCT KD60S DCT KD66U DCT KD72W DCT KD78Y DCT KP84A DCT KP12G/N0486F370 DCT 4930N09000W 56N080W 61N070W DCT FEDDY DCT BERUS/M082F370 DCT CLAVY DCT 65N050W/M083F390 65N040W 64N030W 62N020W DCT BALIX/N0477F390 DCT NINEX DCT GIVEM DCT RODSI DCT TOPPA DCT DIXAT DCT DOJOH DCT DODEN/N0437F330 DCT TABUM DCT BOMBI T104 HAREM/N0389F270 T104 ROKIL ROKIL1B |
| Aircraft | A388/J-SADE2E3GHIJ3J4J5LM1OP2RWXYZ/LB1D1 |
Departure
| Time | N/A |
|---|---|
| Airport | Los Angeles International Airport (KLAX) |
Arrival
| Time | 2026-05-06 12:20 |
|---|---|
| Airport | Munich Airport (EDDM) |
| Time | Latitude | Longitude | Altitude | Speed | Heading |
|---|---|---|---|---|---|
| 2026-05-06 11:46 | 50.33683 | 8.35934 | 39745 ft | 481 kts | 150° |
| 2026-05-06 11:46 | 50.30932 | 8.38923 | 39750 ft | 483 kts | 146° |
| 2026-05-06 11:47 | 50.25127 | 8.47087 | 39731 ft | 488 kts | 135° |
| 2026-05-06 11:47 | 50.20551 | 8.54939 | 39752 ft | 489 kts | 135° |
| 2026-05-06 11:48 | 50.15944 | 8.62755 | 39757 ft | 489 kts | 135° |
| 2026-05-06 11:48 | 50.12073 | 8.69275 | 39761 ft | 490 kts | 136° |
| 2026-05-06 11:49 | 50.07436 | 8.77058 | 39780 ft | 489 kts | 136° |
| 2026-05-06 11:49 | 50.02582 | 8.84435 | 39775 ft | 487 kts | 141° |
| 2026-05-06 11:50 | 49.97559 | 8.91503 | 39773 ft | 487 kts | 141° |
| 2026-05-06 11:50 | 49.92559 | 8.98550 | 39772 ft | 487 kts | 141° |
| 2026-05-06 11:51 | 49.87538 | 9.05611 | 39774 ft | 487 kts | 141° |
| 2026-05-06 11:51 | 49.82514 | 9.12656 | 39779 ft | 486 kts | 141° |
| 2026-05-06 11:52 | 49.77536 | 9.19616 | 39790 ft | 486 kts | 141° |
| 2026-05-06 11:52 | 49.72512 | 9.26619 | 39791 ft | 486 kts | 141° |
| 2026-05-06 11:53 | 49.67489 | 9.33600 | 39791 ft | 485 kts | 141° |
| 2026-05-06 11:53 | 49.62478 | 9.40589 | 39789 ft | 486 kts | 139° |
| 2026-05-06 11:54 | 49.57911 | 9.48272 | 39762 ft | 488 kts | 134° |
| 2026-05-06 11:54 | 49.53441 | 9.56169 | 39769 ft | 488 kts | 134° |
| 2026-05-06 11:55 | 49.48955 | 9.64027 | 39779 ft | 489 kts | 134° |
| 2026-05-06 11:55 | 49.44456 | 9.71872 | 39788 ft | 489 kts | 134° |
| 2026-05-06 11:56 | 49.39951 | 9.79705 | 39794 ft | 490 kts | 134° |
| 2026-05-06 11:56 | 49.35425 | 9.87545 | 39784 ft | 491 kts | 134° |
| 2026-05-06 11:57 | 49.30890 | 9.95361 | 39784 ft | 492 kts | 135° |
| 2026-05-06 11:57 | 49.26335 | 10.03190 | 39787 ft | 493 kts | 135° |
| 2026-05-06 11:58 | 49.21767 | 10.11017 | 39793 ft | 494 kts | 135° |
| 2026-05-06 11:58 | 49.17180 | 10.18860 | 39808 ft | 495 kts | 135° |
| 2026-05-06 11:59 | 49.14891 | 10.22772 | 39614 ft | 492 kts | 135° |
| 2026-05-06 11:59 | 49.12598 | 10.26644 | 39010 ft | 492 kts | 136° |
| 2026-05-06 11:59 | 49.10246 | 10.30443 | 38192 ft | 495 kts | 137° |
| 2026-05-06 11:59 | 49.07855 | 10.34245 | 37225 ft | 496 kts | 138° |
| 2026-05-06 12:00 | 49.05469 | 10.38041 | 36381 ft | 495 kts | 139° |
| 2026-05-06 12:00 | 49.03101 | 10.41823 | 35641 ft | 492 kts | 139° |
| 2026-05-06 12:00 | 49.00760 | 10.45564 | 34787 ft | 490 kts | 139° |
| 2026-05-06 12:00 | 48.98411 | 10.49315 | 33942 ft | 488 kts | 140° |
| 2026-05-06 12:01 | 48.96066 | 10.53048 | 32983 ft | 486 kts | 140° |
| 2026-05-06 12:01 | 48.93747 | 10.56739 | 32202 ft | 481 kts | 139° |
| 2026-05-06 12:01 | 48.91449 | 10.60398 | 31378 ft | 476 kts | 140° |
| 2026-05-06 12:01 | 48.89174 | 10.64012 | 30663 ft | 471 kts | 140° |
| 2026-05-06 12:02 | 48.86973 | 10.67679 | 29973 ft | 470 kts | 134° |
| 2026-05-06 12:02 | 48.85224 | 10.71886 | 29192 ft | 475 kts | 122° |
| 2026-05-06 12:02 | 48.84060 | 10.76589 | 28402 ft | 479 kts | 110° |
| 2026-05-06 12:02 | 48.83454 | 10.81498 | 27653 ft | 478 kts | 104° |
| 2026-05-06 12:03 | 48.82938 | 10.86517 | 26904 ft | 473 kts | 104° |
| 2026-05-06 12:03 | 48.82434 | 10.91414 | 26175 ft | 467 kts | 104° |
| 2026-05-06 12:03 | 48.81940 | 10.96186 | 25480 ft | 461 kts | 104° |
| 2026-05-06 12:03 | 48.81444 | 11.00960 | 24772 ft | 456 kts | 104° |
| 2026-05-06 12:04 | 48.80960 | 11.05676 | 24106 ft | 450 kts | 104° |
| 2026-05-06 12:04 | 48.80477 | 11.10333 | 23447 ft | 444 kts | 104° |
| 2026-05-06 12:04 | 48.79999 | 11.14915 | 22696 ft | 438 kts | 104° |
| 2026-05-06 12:04 | 48.79379 | 11.19400 | 21940 ft | 428 kts | 113° |
| 2026-05-06 12:05 | 48.78165 | 11.23422 | 21132 ft | 413 kts | 128° |
| 2026-05-06 12:05 | 48.76380 | 11.26688 | 20397 ft | 394 kts | 143° |
| 2026-05-06 12:05 | 48.74171 | 11.28958 | 19694 ft | 377 kts | 160° |
| 2026-05-06 12:05 | 48.71721 | 11.30065 | 19016 ft | 361 kts | 177° |
| 2026-05-06 12:06 | 48.69255 | 11.30123 | 18371 ft | 351 kts | 184° |
| 2026-05-06 12:06 | 48.66831 | 11.30015 | 17729 ft | 348 kts | 184° |
| 2026-05-06 12:06 | 48.64410 | 11.29908 | 16977 ft | 348 kts | 184° |
| 2026-05-06 12:06 | 48.61994 | 11.29862 | 16246 ft | 349 kts | 178° |
| 2026-05-06 12:07 | 48.59632 | 11.30775 | 15537 ft | 356 kts | 159° |
| 2026-05-06 12:07 | 48.57584 | 11.32932 | 14824 ft | 365 kts | 139° |
| 2026-05-06 12:07 | 48.56118 | 11.36100 | 14145 ft | 374 kts | 118° |
| 2026-05-06 12:07 | 48.55194 | 11.39775 | 13479 ft | 374 kts | 114° |
| 2026-05-06 12:08 | 48.54297 | 11.43459 | 12741 ft | 373 kts | 114° |
| 2026-05-06 12:08 | 48.53570 | 11.47205 | 11996 ft | 376 kts | 101° |
| 2026-05-06 12:08 | 48.53631 | 11.51156 | 11308 ft | 379 kts | 84° |
| 2026-05-06 12:08 | 48.54030 | 11.55077 | 10617 ft | 377 kts | 84° |
| 2026-05-06 12:09 | 48.54245 | 11.58982 | 9922 ft | 370 kts | 97° |
| 2026-05-06 12:09 | 48.53651 | 11.62679 | 9223 ft | 359 kts | 118° |
| 2026-05-06 12:09 | 48.52292 | 11.65715 | 8452 ft | 344 kts | 139° |
| 2026-05-06 12:09 | 48.50449 | 11.67889 | 7744 ft | 331 kts | 149° |
| 2026-05-06 12:10 | 48.48397 | 11.69268 | 7053 ft | 319 kts | 169° |
| 2026-05-06 12:10 | 48.46214 | 11.69333 | 6371 ft | 314 kts | 191° |
| 2026-05-06 12:10 | 48.44224 | 11.68098 | 5671 ft | 310 kts | 214° |
| 2026-05-06 12:10 | 48.42776 | 11.65753 | 5176 ft | 303 kts | 240° |
| 2026-05-06 12:11 | 48.42164 | 11.62813 | 5067 ft | 289 kts | 262° |
| 2026-05-06 12:11 | 48.41940 | 11.59869 | 5017 ft | 277 kts | 262° |
| 2026-05-06 12:11 | 48.41724 | 11.57007 | 4995 ft | 274 kts | 262° |
| 2026-05-06 12:11 | 48.41510 | 11.54154 | 5004 ft | 275 kts | 262° |
| 2026-05-06 12:12 | 48.41292 | 11.51289 | 5005 ft | 276 kts | 262° |
| 2026-05-06 12:12 | 48.41077 | 11.48426 | 4999 ft | 275 kts | 262° |
| 2026-05-06 12:12 | 48.40865 | 11.45567 | 5005 ft | 276 kts | 262° |
| 2026-05-06 12:12 | 48.40564 | 11.42729 | 4996 ft | 273 kts | 249° |
| 2026-05-06 12:13 | 48.39582 | 11.40337 | 4991 ft | 268 kts | 223° |
| 2026-05-06 12:13 | 48.38017 | 11.38879 | 4701 ft | 267 kts | 195° |
| 2026-05-06 12:13 | 48.36199 | 11.38724 | 4409 ft | 260 kts | 166° |
| 2026-05-06 12:13 | 48.34671 | 11.40073 | 4091 ft | 259 kts | 129° |
| 2026-05-06 12:14 | 48.33961 | 11.42491 | 4008 ft | 253 kts | 99° |
| 2026-05-06 12:14 | 48.33893 | 11.45018 | 3997 ft | 237 kts | 88° |
| 2026-05-06 12:14 | 48.34025 | 11.47441 | 3994 ft | 222 kts | 84° |
| 2026-05-06 12:14 | 48.34190 | 11.49633 | 3992 ft | 207 kts | 84° |
| 2026-05-06 12:15 | 48.34342 | 11.51668 | 4004 ft | 182 kts | 84° |
| 2026-05-06 12:15 | 48.34477 | 11.53418 | 4011 ft | 162 kts | 84° |
| 2026-05-06 12:15 | 48.34606 | 11.55067 | 4008 ft | 152 kts | 85° |
| 2026-05-06 12:15 | 48.34725 | 11.56618 | 3998 ft | 146 kts | 85° |
| 2026-05-06 12:16 | 48.34839 | 11.58128 | 3932 ft | 143 kts | 84° |
| 2026-05-06 12:16 | 48.34952 | 11.59591 | 3740 ft | 137 kts | 84° |
| 2026-05-06 12:16 | 48.35064 | 11.61017 | 3567 ft | 138 kts | 84° |
| 2026-05-06 12:16 | 48.35172 | 11.62441 | 3394 ft | 137 kts | 83° |
| 2026-05-06 12:17 | 48.35286 | 11.63868 | 3208 ft | 138 kts | 83° |
| 2026-05-06 12:17 | 48.35391 | 11.65284 | 3028 ft | 136 kts | 83° |
| 2026-05-06 12:17 | 48.35501 | 11.66714 | 2848 ft | 138 kts | 82° |
| 2026-05-06 12:17 | 48.35611 | 11.68123 | 2662 ft | 134 kts | 83° |
| 2026-05-06 12:18 | 48.35715 | 11.69506 | 2493 ft | 133 kts | 83° |
| 2026-05-06 12:18 | 48.35824 | 11.70908 | 2288 ft | 137 kts | 83° |
| 2026-05-06 12:18 | 48.35932 | 11.72326 | 2113 ft | 136 kts | 82° |
| 2026-05-06 12:18 | 48.36042 | 11.73752 | 1923 ft | 137 kts | 81° |
| 2026-05-06 12:19 | 48.36148 | 11.75145 | 1724 ft | 138 kts | 81° |
| 2026-05-06 12:19 | 48.36258 | 11.76586 | 1553 ft | 138 kts | 81° |
| 2026-05-06 12:19 | 48.36361 | 11.77926 | 1488 ft | 109 kts | 85° |
| 2026-05-06 12:19 | 48.36445 | 11.78817 | 1483 ft | 70 kts | 84° |
| 2026-05-06 12:20 | 48.36489 | 11.79438 | 1490 ft | 51 kts | 83° |
| 2026-05-06 12:20 | 48.36519 | 11.79881 | 1481 ft | 34 kts | 95° |
| 2026-05-06 12:20 | 48.36455 | 11.80181 | 1475 ft | 25 kts | 112° |
| 2026-05-06 12:20 | 48.36395 | 11.80403 | 1490 ft | 14 kts | 112° |
| 2026-05-06 12:21 | 48.36376 | 11.80469 | 1477 ft | 0 kts | 114° |
| 2026-05-06 12:21 | 48.36369 | 11.80492 | 1483 ft | 5 kts | 116° |
| 2026-05-06 12:21 | 48.36348 | 11.80546 | 1475 ft | 4 kts | 132° |
| 2026-05-06 12:21 | 48.36347 | 11.80549 | 1477 ft | 1 kts | 133° |
| 2026-05-06 12:22 | 48.36325 | 11.80576 | 1480 ft | 7 kts | 150° |
| 2026-05-06 12:22 | 48.36311 | 11.80586 | 1478 ft | 1 kts | 162° |
| 2026-05-06 12:22 | 48.36298 | 11.80588 | 1480 ft | 2 kts | 199° |
| 2026-05-06 12:22 | 48.36289 | 11.80538 | 1475 ft | 12 kts | 287° |
| 2026-05-06 12:23 | 48.36284 | 11.80396 | 1487 ft | 17 kts | 262° |
| 2026-05-06 12:23 | 48.36266 | 11.80209 | 1483 ft | 19 kts | 262° |
| 2026-05-06 12:23 | 48.36249 | 11.80027 | 1475 ft | 18 kts | 262° |
| 2026-05-06 12:23 | 48.36234 | 11.79855 | 1478 ft | 13 kts | 264° |
| 2026-05-06 12:24 | 48.36225 | 11.79706 | 1481 ft | 14 kts | 266° |
| 2026-05-06 12:24 | 48.36224 | 11.79646 | 1480 ft | 5 kts | 269° |
| 2026-05-06 12:24 | 48.36223 | 11.79618 | 1480 ft | 4 kts | 269° |
| 2026-05-06 12:24 | 48.36222 | 11.79538 | 1475 ft | 11 kts | 266° |
| 2026-05-06 12:25 | 48.36206 | 11.79473 | 1480 ft | 5 kts | 203° |
| 2026-05-06 12:25 | 48.36134 | 11.79473 | 1483 ft | 16 kts | 172° |
| 2026-05-06 12:25 | 48.36051 | 11.79489 | 1485 ft | 0 kts | 178° |
| 2026-05-06 12:26 | 48.35913 | 11.79510 | 1486 ft | 1 kts | 179° |
| 2026-05-06 12:26 | 48.35866 | 11.79519 | 1484 ft | 13 kts | 170° |
| 2026-05-06 12:27 | 48.35749 | 11.79551 | 1479 ft | 18 kts | 170° |
| 2026-05-06 12:27 | 48.35666 | 11.79560 | 1482 ft | 15 kts | 176° |
| 2026-05-06 12:27 | 48.35557 | 11.79573 | 1485 ft | 17 kts | 175° |
| 2026-05-06 12:27 | 48.35478 | 11.79555 | 1487 ft | 9 kts | 209° |
| 2026-05-06 12:28 | 48.35411 | 11.79504 | 1477 ft | 12 kts | 195° |
| 2026-05-06 12:28 | 48.35305 | 11.79491 | 1481 ft | 18 kts | 179° |
| 2026-05-06 12:28 | 48.35200 | 11.79506 | 1479 ft | 16 kts | 178° |
| 2026-05-06 12:28 | 48.35121 | 11.79513 | 1478 ft | 6 kts | 176° |
| 2026-05-06 12:29 | 48.35071 | 11.79518 | 1475 ft | 9 kts | 176° |
| 2026-05-06 12:29 | 48.35039 | 11.79535 | 1477 ft | 2 kts | 102° |
| 2026-05-06 12:29 | 48.35058 | 11.79610 | 1477 ft | 17 kts | 64° |
| 2026-05-06 12:29 | 48.35105 | 11.79757 | 1480 ft | 6 kts | 66° |
| 2026-05-06 12:30 | 48.35119 | 11.79839 | 1483 ft | 11 kts | 79° |
| 2026-05-06 12:30 | 48.35127 | 11.79958 | 1478 ft | 11 kts | 86° |
| 2026-05-06 12:30 | 48.35133 | 11.80084 | 1478 ft | 12 kts | 79° |
| 2026-05-06 12:30 | 48.35171 | 11.80162 | 1476 ft | 10 kts | 13° |
| 2026-05-06 12:31 | 48.35216 | 11.80157 | 1482 ft | 2 kts | 308° |
| 2026-05-06 12:31 | 48.35220 | 11.80135 | 1481 ft | 4 kts | 273° |
| 2026-05-06 12:31 | 48.35221 | 11.80125 | 1483 ft | 2 kts | 283° |
| 2026-05-06 12:31 | 48.35227 | 11.80111 | 1478 ft | 1 kts | 326° |
| 2026-05-06 12:32 | 48.35247 | 11.80097 | 1481 ft | 5 kts | 333° |
| 2026-05-06 12:32 | 48.35264 | 11.80069 | 1479 ft | 0 kts | 285° |
| 2026-05-06 12:32 | 48.35264 | 11.80065 | 1480 ft | 1 kts | 270° |
| 2026-05-06 12:32 | 48.35264 | 11.80056 | 1477 ft | 3 kts | 261° |
| 2026-05-06 12:33 | 48.35262 | 11.80045 | 1479 ft | 0 kts | 261° |
| 2026-05-06 12:33 | 48.35258 | 11.80002 | 1480 ft | 0 kts | 263° |